createdAt,value
2019-02-18T00:04:00.424Z,22.03
2019-02-18T00:09:04.297Z,20.70
2019-02-18T00:14:19.368Z,21.47
2019-02-18T00:19:22.553Z,20.30
2019-02-18T00:24:25.862Z,21.10
2019-02-18T00:29:29.269Z,21.03
2019-02-18T00:34:32.473Z,20.60
2019-02-18T00:39:35.799Z,19.60
2019-02-18T00:44:39.020Z,21.27
2019-02-18T00:49:44.946Z,20.20
2019-02-18T00:54:51.840Z,19.43
2019-02-18T00:59:57.364Z,19.97
2019-02-18T01:05:00.851Z,19.53
2019-02-18T01:10:05.048Z,19.63
2019-02-18T01:15:09.645Z,19.70
2019-02-18T01:20:14.262Z,18.93
2019-02-18T01:25:17.601Z,20.80
2019-02-18T01:30:22.694Z,20.50
2019-02-18T01:35:26.051Z,20.20
2019-02-18T01:40:30.035Z,18.77
2019-02-18T01:45:33.492Z,18.43
2019-02-18T01:50:36.963Z,19.07
2019-02-18T01:55:40.413Z,19.10
2019-02-18T02:00:43.824Z,19.93
2019-02-18T02:05:47.064Z,19.50
2019-02-18T02:10:50.351Z,19.10
2019-02-18T02:15:58.197Z,19.50
2019-02-18T02:21:01.742Z,19.77
2019-02-18T02:26:05.255Z,20.03
2019-02-18T02:31:10.656Z,18.67
2019-02-18T02:36:17.042Z,18.10
2019-02-18T02:41:20.469Z,18.43
2019-02-18T02:46:23.754Z,18.93
2019-02-18T02:51:27.059Z,17.60
2019-02-18T02:56:30.358Z,19.30
2019-02-18T03:01:33.602Z,17.80
2019-02-18T03:06:37.160Z,19.17
2019-02-18T03:11:40.514Z,17.00
2019-02-18T03:16:50.130Z,17.20
2019-02-18T03:21:53.574Z,17.80
2019-02-18T03:27:06.067Z,16.40
2019-02-18T03:32:09.333Z,19.80
2019-02-18T03:37:12.756Z,16.10
2019-02-18T03:42:16.258Z,17.43
2019-02-18T03:47:19.618Z,16.37
2019-02-18T03:52:23.137Z,16.47
2019-02-18T03:57:26.853Z,15.67
2019-02-18T04:02:30.274Z,16.93
2019-02-18T04:07:33.656Z,16.33
2019-02-18T04:12:36.945Z,15.80
2019-02-18T04:17:45.586Z,16.03
2019-02-18T04:22:49.098Z,16.60
2019-02-18T04:27:52.386Z,15.23
2019-02-18T04:33:01.661Z,15.33
2019-02-18T04:38:04.938Z,15.13
2019-02-18T04:43:14.119Z,16.07
2019-02-18T04:48:17.526Z,16.37
2019-02-18T04:53:20.836Z,15.47
2019-02-18T04:58:24.065Z,15.70
2019-02-18T05:03:27.425Z,16.00
2019-02-18T05:08:30.666Z,14.87
2019-02-18T05:13:37.058Z,15.73
2019-02-18T05:18:40.609Z,14.97
2019-02-18T05:24:03.271Z,15.07
2019-02-18T05:29:06.661Z,15.97
2019-02-18T05:34:10.302Z,16.13
2019-02-18T05:39:17.922Z,16.27
2019-02-18T05:44:18.816Z,15.13
2019-02-18T05:49:22.234Z,15.73
2019-02-18T05:54:25.662Z,16.07
2019-02-18T05:59:29.041Z,15.73
2019-02-18T06:04:32.470Z,15.00
2019-02-18T06:09:38.659Z,15.47
2019-02-18T06:14:47.477Z,16.10
2019-02-18T06:19:50.901Z,15.60
2019-02-18T06:24:54.396Z,15.07
2019-02-18T06:29:57.743Z,14.57
2019-02-18T06:35:01.224Z,15.67
2019-02-18T06:40:05.766Z,14.90
2019-02-18T06:45:37.505Z,15.03
2019-02-18T06:50:40.869Z,14.70
2019-02-18T06:55:47.037Z,14.80
2019-02-18T07:01:09.863Z,14.07
2019-02-18T07:06:32.834Z,15.30
2019-02-18T07:12:01.233Z,15.00
2019-02-18T07:17:05.684Z,15.20
2019-02-18T07:22:09.043Z,14.10
2019-02-18T07:27:12.402Z,15.03
2019-02-18T07:32:18.799Z,15.77
2019-02-18T07:37:22.217Z,14.00
2019-02-18T07:42:25.193Z,13.03
2019-02-18T07:47:28.607Z,13.80
2019-02-18T07:52:34.069Z,13.40
2019-02-18T07:57:37.402Z,13.20
2019-02-18T08:02:40.767Z,12.83
2019-02-18T08:07:44.039Z,14.33
2019-02-18T08:12:47.454Z,13.33
2019-02-18T08:17:52.711Z,13.03
2019-02-18T08:22:56.284Z,13.27
2019-02-18T08:27:59.696Z,13.90
2019-02-18T08:33:03.054Z,13.33
2019-02-18T08:38:06.469Z,13.07
2019-02-18T08:43:09.883Z,12.93
2019-02-18T08:48:13.448Z,12.90
2019-02-18T08:53:16.860Z,13.23
2019-02-18T08:58:20.300Z,13.30
2019-02-18T09:03:25.172Z,12.60
2019-02-18T09:08:28.639Z,13.13
2019-02-18T09:13:35.151Z,13.77
2019-02-18T09:18:38.485Z,13.90
2019-02-18T09:23:59.151Z,13.37
2019-02-18T09:29:02.544Z,13.60
2019-02-18T09:34:05.861Z,13.67
2019-02-18T09:39:29.989Z,14.13
2019-02-18T09:44:25.194Z,12.60
2019-02-18T09:49:28.709Z,13.37
2019-02-18T09:54:32.154Z,13.37
2019-02-18T09:59:35.577Z,13.33
2019-02-18T10:04:39.008Z,12.90
2019-02-18T10:09:43.366Z,14.03
2019-02-18T10:14:57.684Z,13.97
2019-02-18T10:20:04.323Z,14.20
2019-02-18T10:25:10.335Z,12.20
2019-02-18T10:30:13.500Z,15.67
2019-02-18T10:35:19.656Z,14.10
2019-02-18T10:40:23.215Z,14.93
2019-02-18T10:45:37.382Z,14.27
2019-02-18T10:50:31.952Z,13.90
2019-02-18T10:55:35.464Z,14.87
2019-02-18T11:00:38.758Z,14.30
2019-02-18T11:05:41.986Z,14.80
2019-02-18T11:10:46.389Z,15.67
2019-02-18T11:15:49.971Z,14.77
2019-02-18T11:20:53.416Z,13.97
2019-02-18T11:25:56.631Z,14.80
2019-02-18T11:31:09.032Z,14.27
2019-02-18T11:36:13.363Z,12.73
2019-02-18T11:41:26.784Z,13.70
2019-02-18T11:46:24.269Z,15.07
2019-02-18T11:51:30.626Z,16.23
2019-02-18T11:56:34.090Z,16.03
2019-02-18T12:01:37.421Z,14.17
2019-02-18T12:06:49.188Z,14.77
2019-02-18T12:11:52.359Z,14.33
2019-02-18T12:16:55.911Z,15.20
2019-02-18T12:22:01.369Z,14.30
2019-02-18T12:27:04.964Z,14.83
2019-02-18T12:32:08.297Z,15.00
2019-02-18T12:37:14.990Z,15.37
2019-02-18T12:42:18.470Z,15.23
2019-02-18T12:47:21.760Z,14.93
2019-02-18T12:52:24.947Z,16.00
2019-02-18T12:57:32.739Z,15.67
2019-02-18T13:02:43.673Z,15.77
2019-02-18T13:07:41.234Z,14.90
2019-02-18T13:12:44.760Z,16.40
2019-02-18T13:17:50.895Z,15.70
2019-02-18T13:22:54.612Z,14.00
2019-02-18T13:28:17.278Z,14.53
2019-02-18T13:33:20.564Z,16.43
2019-02-18T13:38:25.916Z,15.40
2019-02-18T13:43:29.296Z,15.40
2019-02-18T13:48:40.164Z,15.40
2019-02-18T13:53:43.389Z,15.03
2019-02-18T13:58:46.871Z,15.23
2019-02-18T14:03:50.136Z,15.57
2019-02-18T14:08:55.554Z,16.53
2019-02-18T14:13:58.439Z,15.67
2019-02-18T14:19:01.955Z,15.30
2019-02-18T14:24:05.568Z,15.43
2019-02-18T14:29:09.020Z,13.30
2019-02-18T14:34:12.226Z,14.43
2019-02-18T14:39:25.170Z,14.03
2019-02-18T14:44:30.593Z,13.80
2019-02-18T14:49:37.379Z,13.70
2019-02-18T14:54:42.454Z,14.63
2019-02-18T14:59:45.947Z,13.77
2019-02-18T15:04:49.221Z,13.20
2019-02-18T15:09:52.602Z,13.50
2019-02-18T15:14:56.326Z,14.10
2019-02-18T15:19:59.642Z,13.30
2019-02-18T15:25:03.039Z,14.50
2019-02-18T15:30:07.588Z,13.90
2019-02-18T15:35:11.003Z,14.20
2019-02-18T15:40:15.979Z,14.60
2019-02-18T15:45:19.279Z,14.30
2019-02-18T15:50:22.845Z,14.57
2019-02-18T15:55:26.460Z,14.10
2019-02-18T16:00:29.971Z,14.90
2019-02-18T16:05:33.725Z,14.07
2019-02-18T16:10:36.932Z,15.20
2019-02-18T16:15:44.205Z,13.63
2019-02-18T16:20:47.724Z,14.40
2019-02-18T16:25:57.490Z,14.07
2019-02-18T16:31:01.305Z,16.73
2019-02-18T16:36:07.023Z,15.17
2019-02-18T16:41:10.831Z,14.00
2019-02-18T16:46:15.805Z,14.80
2019-02-18T16:51:20.691Z,15.40
2019-02-18T16:56:24.621Z,15.03
2019-02-18T17:01:31.311Z,15.43
2019-02-18T17:06:37.232Z,15.70
2019-02-18T17:11:40.761Z,15.60
2019-02-18T17:16:44.185Z,14.90
2019-02-18T17:21:50.696Z,15.67
2019-02-18T17:26:54.004Z,17.00
2019-02-18T17:31:58.849Z,16.80
2019-02-18T17:37:02.298Z,16.67
2019-02-18T17:42:05.886Z,16.53
2019-02-18T17:47:11.978Z,16.40
2019-02-18T17:52:15.505Z,16.80
2019-02-18T17:57:18.382Z,14.67
2019-02-18T18:02:21.660Z,15.77
2019-02-18T18:07:28.299Z,15.87
2019-02-18T18:12:33.086Z,17.43
2019-02-18T18:17:36.542Z,16.30
2019-02-18T18:22:41.285Z,16.63
2019-02-18T18:27:44.648Z,15.50
2019-02-18T18:32:47.689Z,14.90
2019-02-18T18:37:53.374Z,15.37
2019-02-18T18:42:56.209Z,18.63
2019-02-18T18:47:59.103Z,16.30
2019-02-18T18:53:02.367Z,17.07
2019-02-18T18:58:05.677Z,15.37
2019-02-18T19:03:09.085Z,15.40
2019-02-18T19:08:13.744Z,14.90
2019-02-18T19:13:17.094Z,14.60
2019-02-18T19:18:20.552Z,15.53
2019-02-18T19:23:24.003Z,13.40
2019-02-18T19:28:27.380Z,13.90
2019-02-18T19:33:31.788Z,13.67
2019-02-18T19:38:36.865Z,14.30
2019-02-18T19:43:40.275Z,13.90
2019-02-18T19:48:43.517Z,13.90
2019-02-18T19:53:46.938Z,14.03
2019-02-18T19:58:50.352Z,12.53
2019-02-18T20:03:59.185Z,13.47
2019-02-18T20:09:06.198Z,13.10
2019-02-18T20:14:09.662Z,13.23
2019-02-18T20:19:15.867Z,13.70
2019-02-18T20:24:19.216Z,14.07
2019-02-18T20:29:22.732Z,14.70
2019-02-18T20:34:32.225Z,13.33
2019-02-18T20:39:38.466Z,13.90
2019-02-18T20:44:43.454Z,12.97
2019-02-18T20:49:47.138Z,13.30
2019-02-18T20:54:53.383Z,16.13
2019-02-18T20:59:56.764Z,14.17
2019-02-18T21:05:00.487Z,14.90
2019-02-18T21:10:03.997Z,11.67
2019-02-18T21:15:07.954Z,14.03
2019-02-18T21:20:11.746Z,14.43
2019-02-18T21:25:18.169Z,15.17
2019-02-18T21:30:21.383Z,15.40
2019-02-18T21:35:42.528Z,13.83
2019-02-18T21:40:45.930Z,13.90
2019-02-18T21:45:49.234Z,14.87
2019-02-18T21:50:53.394Z,14.83
2019-02-18T21:55:56.705Z,13.47
2019-02-18T22:01:00.281Z,13.67
2019-02-18T22:06:03.963Z,13.70
2019-02-18T22:11:07.483Z,15.20
2019-02-18T22:16:10.998Z,15.53
2019-02-18T22:21:15.535Z,15.80
2019-02-18T22:26:19.297Z,16.20
2019-02-18T22:31:22.606Z,15.33
2019-02-18T22:36:25.839Z,15.80
2019-02-18T22:41:36.458Z,15.90
2019-02-18T22:46:39.914Z,15.30
2019-02-18T22:51:43.426Z,15.67
2019-02-18T22:56:46.856Z,14.73
2019-02-18T23:01:50.280Z,14.80
2019-02-18T23:06:53.829Z,15.17
2019-02-18T23:12:00.315Z,14.17
2019-02-18T23:17:03.999Z,13.80
2019-02-18T23:22:07.805Z,14.27
2019-02-18T23:27:11.208Z,13.40
2019-02-18T23:32:17.302Z,14.20
2019-02-18T23:37:23.804Z,13.17
2019-02-18T23:42:27.184Z,13.67
2019-02-18T23:47:33.622Z,13.77
2019-02-18T23:52:37.280Z,14.33
2019-02-18T23:57:40.609Z,12.97
